sensor_id;sensor_type;location;lat;lon;timestamp;P1;durP1;ratioP1;P2;durP2;ratioP2
41653;SDS011;30790;52.030;7.110;2023-02-13T00:01:49;3.30;;;2.38;;
41653;SDS011;30790;52.030;7.110;2023-02-13T00:04:14;5.90;;;2.50;;
41653;SDS011;30790;52.030;7.110;2023-02-13T00:06:40;3.25;;;2.25;;
41653;SDS011;30790;52.030;7.110;2023-02-13T00:09:05;2.78;;;1.88;;
41653;SDS011;30790;52.030;7.110;2023-02-13T00:11:34;2.53;;;2.25;;
41653;SDS011;30790;52.030;7.110;2023-02-13T00:14:00;5.07;;;2.58;;
41653;SDS011;30790;52.030;7.110;2023-02-13T00:16:26;2.83;;;2.38;;
41653;SDS011;30790;52.030;7.110;2023-02-13T00:18:51;2.92;;;2.20;;
41653;SDS011;30790;52.030;7.110;2023-02-13T00:21:16;3.38;;;2.50;;
41653;SDS011;30790;52.030;7.110;2023-02-13T00:23:42;4.63;;;2.53;;
41653;SDS011;30790;52.030;7.110;2023-02-13T00:26:08;4.47;;;2.20;;
41653;SDS011;30790;52.030;7.110;2023-02-13T00:28:35;4.35;;;2.38;;
41653;SDS011;30790;52.030;7.110;2023-02-13T00:31:01;3.47;;;2.25;;
41653;SDS011;30790;52.030;7.110;2023-02-13T00:33:31;3.72;;;2.72;;
41653;SDS011;30790;52.030;7.110;2023-02-13T00:36:07;3.88;;;2.17;;
41653;SDS011;30790;52.030;7.110;2023-02-13T00:38:35;2.72;;;2.30;;
41653;SDS011;30790;52.030;7.110;2023-02-13T00:41:01;2.92;;;2.13;;
41653;SDS011;30790;52.030;7.110;2023-02-13T00:43:27;3.08;;;2.20;;
41653;SDS011;30790;52.030;7.110;2023-02-13T00:45:53;3.35;;;2.30;;
41653;SDS011;30790;52.030;7.110;2023-02-13T00:48:18;2.10;;;1.90;;
41653;SDS011;30790;52.030;7.110;2023-02-13T00:50:44;2.85;;;2.28;;
41653;SDS011;30790;52.030;7.110;2023-02-13T00:53:10;2.78;;;2.08;;
41653;SDS011;30790;52.030;7.110;2023-02-13T00:55:36;2.53;;;2.03;;
41653;SDS011;30790;52.030;7.110;2023-02-13T00:58:01;2.90;;;2.33;;
41653;SDS011;30790;52.030;7.110;2023-02-13T01:00:26;3.03;;;2.22;;
41653;SDS011;30790;52.030;7.110;2023-02-13T01:02:51;2.67;;;2.40;;
41653;SDS011;30790;52.030;7.110;2023-02-13T01:05:17;3.22;;;2.28;;
41653;SDS011;30790;52.030;7.110;2023-02-13T01:07:42;4.88;;;2.45;;
41653;SDS011;30790;52.030;7.110;2023-02-13T01:10:08;2.40;;;2.10;;
41653;SDS011;30790;52.030;7.110;2023-02-13T01:12:33;2.72;;;2.22;;
41653;SDS011;30790;52.030;7.110;2023-02-13T01:14:58;3.53;;;2.25;;
41653;SDS011;30790;52.030;7.110;2023-02-13T01:17:24;4.50;;;2.30;;
41653;SDS011;30790;52.030;7.110;2023-02-13T01:19:49;2.90;;;1.65;;
41653;SDS011;30790;52.030;7.110;2023-02-13T01:22:14;3.25;;;2.70;;
41653;SDS011;30790;52.030;7.110;2023-02-13T01:24:39;2.83;;;2.15;;
41653;SDS011;30790;52.030;7.110;2023-02-13T01:27:05;2.95;;;2.00;;
41653;SDS011;30790;52.030;7.110;2023-02-13T01:29:30;2.10;;;1.63;;
41653;SDS011;30790;52.030;7.110;2023-02-13T01:31:55;3.25;;;2.33;;
41653;SDS011;30790;52.030;7.110;2023-02-13T01:34:21;3.58;;;2.10;;
41653;SDS011;30790;52.030;7.110;2023-02-13T01:36:46;2.90;;;2.23;;
41653;SDS011;30790;52.030;7.110;2023-02-13T01:39:11;3.53;;;1.92;;
41653;SDS011;30790;52.030;7.110;2023-02-13T01:41:37;3.40;;;1.83;;
41653;SDS011;30790;52.030;7.110;2023-02-13T01:44:02;3.30;;;2.38;;
41653;SDS011;30790;52.030;7.110;2023-02-13T01:46:48;3.63;;;2.17;;
41653;SDS011;30790;52.030;7.110;2023-02-13T01:49:15;3.75;;;1.92;;
41653;SDS011;30790;52.030;7.110;2023-02-13T01:51:44;2.05;;;1.85;;
41653;SDS011;30790;52.030;7.110;2023-02-13T01:54:14;3.90;;;2.40;;
41653;SDS011;30790;52.030;7.110;2023-02-13T01:56:51;2.38;;;1.85;;
41653;SDS011;30790;52.030;7.110;2023-02-13T01:59:25;2.72;;;2.13;;
41653;SDS011;30790;52.030;7.110;2023-02-13T02:01:55;2.80;;;2.40;;
41653;SDS011;30790;52.030;7.110;2023-02-13T02:04:22;3.00;;;2.30;;
41653;SDS011;30790;52.030;7.110;2023-02-13T02:06:54;2.35;;;2.00;;
41653;SDS011;30790;52.030;7.110;2023-02-13T02:09:23;4.78;;;2.40;;
41653;SDS011;30790;52.030;7.110;2023-02-13T02:12:00;2.72;;;2.17;;
41653;SDS011;30790;52.030;7.110;2023-02-13T02:14:29;2.78;;;2.50;;
41653;SDS011;30790;52.030;7.110;2023-02-13T02:16:55;3.30;;;2.85;;
41653;SDS011;30790;52.030;7.110;2023-02-13T02:19:27;2.15;;;1.95;;
41653;SDS011;30790;52.030;7.110;2023-02-13T02:33:40;3.37;;;2.60;;
41653;SDS011;30790;52.030;7.110;2023-02-13T02:42:20;2.75;;;2.47;;
41653;SDS011;30790;52.030;7.110;2023-02-13T02:47:50;2.50;;;2.15;;
41653;SDS011;30790;52.030;7.110;2023-02-13T02:50:50;2.67;;;1.98;;
41653;SDS011;30790;52.030;7.110;2023-02-13T02:59:11;2.75;;;2.40;;
41653;SDS011;30790;52.030;7.110;2023-02-13T03:02:00;5.03;;;2.58;;
41653;SDS011;30790;52.030;7.110;2023-02-13T03:04:46;3.22;;;2.30;;
41653;SDS011;30790;52.030;7.110;2023-02-13T03:07:33;2.88;;;2.30;;
41653;SDS011;30790;52.030;7.110;2023-02-13T03:10:00;2.63;;;2.38;;
41653;SDS011;30790;52.030;7.110;2023-02-13T03:12:54;2.72;;;2.35;;
41653;SDS011;30790;52.030;7.110;2023-02-13T03:15:44;3.30;;;2.35;;
41653;SDS011;30790;52.030;7.110;2023-02-13T03:18:32;2.38;;;2.17;;
41653;SDS011;30790;52.030;7.110;2023-02-13T03:21:27;2.83;;;2.35;;
41653;SDS011;30790;52.030;7.110;2023-02-13T03:27:29;2.65;;;2.45;;
41653;SDS011;30790;52.030;7.110;2023-02-13T03:30:27;2.63;;;2.40;;
41653;SDS011;30790;52.030;7.110;2023-02-13T03:35:56;2.70;;;1.92;;
41653;SDS011;30790;52.030;7.110;2023-02-13T03:38:57;2.50;;;2.30;;
41653;SDS011;30790;52.030;7.110;2023-02-13T03:44:27;2.83;;;2.05;;
41653;SDS011;30790;52.030;7.110;2023-02-13T03:47:01;3.25;;;2.60;;
41653;SDS011;30790;52.030;7.110;2023-02-13T03:49:40;1.90;;;1.70;;
41653;SDS011;30790;52.030;7.110;2023-02-13T03:55:18;4.45;;;2.63;;
41653;SDS011;30790;52.030;7.110;2023-02-13T03:58:13;2.38;;;1.88;;
41653;SDS011;30790;52.030;7.110;2023-02-13T04:01:01;2.15;;;1.95;;
41653;SDS011;30790;52.030;7.110;2023-02-13T04:06:14;2.13;;;1.88;;
41653;SDS011;30790;52.030;7.110;2023-02-13T04:08:43;3.47;;;2.17;;
41653;SDS011;30790;52.030;7.110;2023-02-13T04:11:10;2.78;;;2.10;;
41653;SDS011;30790;52.030;7.110;2023-02-13T04:13:51;2.83;;;2.30;;
41653;SDS011;30790;52.030;7.110;2023-02-13T04:16:21;3.03;;;2.33;;
41653;SDS011;30790;52.030;7.110;2023-02-13T04:19:04;2.75;;;2.00;;
41653;SDS011;30790;52.030;7.110;2023-02-13T04:21:32;2.03;;;1.83;;
41653;SDS011;30790;52.030;7.110;2023-02-13T04:23:59;3.03;;;1.75;;
41653;SDS011;30790;52.030;7.110;2023-02-13T04:26:24;2.72;;;1.95;;
41653;SDS011;30790;52.030;7.110;2023-02-13T04:28:52;2.28;;;1.88;;
41653;SDS011;30790;52.030;7.110;2023-02-13T04:31:18;2.65;;;2.33;;
41653;SDS011;30790;52.030;7.110;2023-02-13T04:33:43;3.53;;;2.10;;
41653;SDS011;30790;52.030;7.110;2023-02-13T04:36:08;1.75;;;1.60;;
41653;SDS011;30790;52.030;7.110;2023-02-13T04:38:34;2.55;;;2.03;;
41653;SDS011;30790;52.030;7.110;2023-02-13T04:40:59;3.00;;;2.17;;
41653;SDS011;30790;52.030;7.110;2023-02-13T04:43:24;2.08;;;1.88;;
41653;SDS011;30790;52.030;7.110;2023-02-13T04:45:50;2.10;;;1.85;;
41653;SDS011;30790;52.030;7.110;2023-02-13T04:48:16;2.55;;;1.75;;
41653;SDS011;30790;52.030;7.110;2023-02-13T04:50:41;2.38;;;1.77;;
41653;SDS011;30790;52.030;7.110;2023-02-13T04:53:06;3.03;;;1.83;;
41653;SDS011;30790;52.030;7.110;2023-02-13T04:55:32;2.47;;;1.60;;
41653;SDS011;30790;52.030;7.110;2023-02-13T04:57:57;2.95;;;1.85;;
41653;SDS011;30790;52.030;7.110;2023-02-13T05:00:23;2.10;;;1.85;;
41653;SDS011;30790;52.030;7.110;2023-02-13T05:02:50;2.00;;;1.80;;
41653;SDS011;30790;52.030;7.110;2023-02-13T05:05:16;2.42;;;1.65;;
41653;SDS011;30790;52.030;7.110;2023-02-13T05:07:42;2.13;;;1.60;;
41653;SDS011;30790;52.030;7.110;2023-02-13T05:10:08;2.63;;;1.70;;
41653;SDS011;30790;52.030;7.110;2023-02-13T05:12:34;2.42;;;1.65;;
41653;SDS011;30790;52.030;7.110;2023-02-13T05:15:00;1.88;;;1.33;;
41653;SDS011;30790;52.030;7.110;2023-02-13T05:17:25;2.67;;;1.80;;
41653;SDS011;30790;52.030;7.110;2023-02-13T05:19:50;1.85;;;1.50;;
41653;SDS011;30790;52.030;7.110;2023-02-13T05:22:16;1.60;;;1.50;;
41653;SDS011;30790;52.030;7.110;2023-02-13T05:25:00;1.50;;;1.40;;
41653;SDS011;30790;52.030;7.110;2023-02-13T05:27:25;1.65;;;1.50;;
41653;SDS011;30790;52.030;7.110;2023-02-13T05:29:50;1.45;;;1.35;;
41653;SDS011;30790;52.030;7.110;2023-02-13T05:32:15;1.90;;;1.70;;
41653;SDS011;30790;52.030;7.110;2023-02-13T05:34:41;1.73;;;1.63;;
41653;SDS011;30790;52.030;7.110;2023-02-13T05:37:06;2.55;;;1.30;;
41653;SDS011;30790;52.030;7.110;2023-02-13T05:39:31;1.73;;;1.63;;
41653;SDS011;30790;52.030;7.110;2023-02-13T05:41:56;2.33;;;1.50;;
41653;SDS011;30790;52.030;7.110;2023-02-13T05:44:22;2.50;;;1.73;;
41653;SDS011;30790;52.030;7.110;2023-02-13T05:46:47;1.48;;;1.15;;
41653;SDS011;30790;52.030;7.110;2023-02-13T05:49:13;1.50;;;1.40;;
41653;SDS011;30790;52.030;7.110;2023-02-13T05:51:39;2.60;;;1.60;;
41653;SDS011;30790;52.030;7.110;2023-02-13T05:54:06;1.40;;;1.30;;
41653;SDS011;30790;52.030;7.110;2023-02-13T05:56:31;1.48;;;1.25;;
41653;SDS011;30790;52.030;7.110;2023-02-13T05:58:56;1.60;;;1.50;;
41653;SDS011;30790;52.030;7.110;2023-02-13T06:01:22;2.45;;;1.52;;
41653;SDS011;30790;52.030;7.110;2023-02-13T06:03:48;1.50;;;1.40;;
41653;SDS011;30790;52.030;7.110;2023-02-13T06:06:14;1.80;;;1.60;;
41653;SDS011;30790;52.030;7.110;2023-02-13T06:08:39;1.88;;;1.27;;
41653;SDS011;30790;52.030;7.110;2023-02-13T06:11:05;2.33;;;1.52;;
41653;SDS011;30790;52.030;7.110;2023-02-13T06:13:30;1.80;;;1.65;;
41653;SDS011;30790;52.030;7.110;2023-02-13T06:15:56;1.40;;;1.13;;
41653;SDS011;30790;52.030;7.110;2023-02-13T06:18:21;1.92;;;1.52;;
41653;SDS011;30790;52.030;7.110;2023-02-13T06:20:46;1.38;;;1.17;;
41653;SDS011;30790;52.030;7.110;2023-02-13T06:23:12;2.25;;;1.23;;
41653;SDS011;30790;52.030;7.110;2023-02-13T06:25:37;1.88;;;1.70;;
41653;SDS011;30790;52.030;7.110;2023-02-13T06:28:03;2.05;;;1.48;;
41653;SDS011;30790;52.030;7.110;2023-02-13T06:30:29;2.45;;;1.50;;
41653;SDS011;30790;52.030;7.110;2023-02-13T06:32:55;2.38;;;1.50;;
41653;SDS011;30790;52.030;7.110;2023-02-13T06:35:20;1.83;;;1.55;;
41653;SDS011;30790;52.030;7.110;2023-02-13T06:37:45;1.42;;;1.33;;
41653;SDS011;30790;52.030;7.110;2023-02-13T06:40:11;1.45;;;1.33;;
41653;SDS011;30790;52.030;7.110;2023-02-13T06:42:38;2.00;;;1.55;;
41653;SDS011;30790;52.030;7.110;2023-02-13T06:45:04;1.95;;;1.50;;
41653;SDS011;30790;52.030;7.110;2023-02-13T06:47:29;1.98;;;1.17;;
41653;SDS011;30790;52.030;7.110;2023-02-13T06:49:55;2.55;;;1.60;;
41653;SDS011;30790;52.030;7.110;2023-02-13T06:52:20;2.58;;;1.60;;
41653;SDS011;30790;52.030;7.110;2023-02-13T06:54:45;3.03;;;1.38;;
41653;SDS011;30790;52.030;7.110;2023-02-13T06:57:10;3.17;;;1.47;;
41653;SDS011;30790;52.030;7.110;2023-02-13T06:59:36;2.00;;;1.33;;
41653;SDS011;30790;52.030;7.110;2023-02-13T07:02:01;1.20;;;1.10;;
41653;SDS011;30790;52.030;7.110;2023-02-13T07:04:27;1.33;;;1.15;;
41653;SDS011;30790;52.030;7.110;2023-02-13T07:06:55;2.47;;;1.27;;
41653;SDS011;30790;52.030;7.110;2023-02-13T07:09:21;1.67;;;1.33;;
41653;SDS011;30790;52.030;7.110;2023-02-13T07:11:47;5.72;;;2.03;;
41653;SDS011;30790;52.030;7.110;2023-02-13T07:14:12;4.82;;;1.73;;
41653;SDS011;30790;52.030;7.110;2023-02-13T07:16:37;9.40;;;1.92;;
41653;SDS011;30790;52.030;7.110;2023-02-13T07:19:03;2.20;;;1.35;;
41653;SDS011;30790;52.030;7.110;2023-02-13T07:21:28;7.28;;;1.98;;
41653;SDS011;30790;52.030;7.110;2023-02-13T07:23:53;4.30;;;1.80;;
41653;SDS011;30790;52.030;7.110;2023-02-13T07:26:18;3.50;;;1.90;;
41653;SDS011;30790;52.030;7.110;2023-02-13T07:28:43;4.05;;;2.03;;
41653;SDS011;30790;52.030;7.110;2023-02-13T07:31:09;5.57;;;2.07;;
41653;SDS011;30790;52.030;7.110;2023-02-13T07:33:35;2.38;;;1.80;;
41653;SDS011;30790;52.030;7.110;2023-02-13T07:36:01;5.55;;;1.67;;
41653;SDS011;30790;52.030;7.110;2023-02-13T07:38:29;2.35;;;1.90;;
41653;SDS011;30790;52.030;7.110;2023-02-13T07:40:59;2.42;;;1.80;;
41653;SDS011;30790;52.030;7.110;2023-02-13T07:43:25;5.35;;;1.52;;
41653;SDS011;30790;52.030;7.110;2023-02-13T07:45:51;4.05;;;1.95;;
41653;SDS011;30790;52.030;7.110;2023-02-13T07:48:20;1.73;;;1.50;;
41653;SDS011;30790;52.030;7.110;2023-02-13T07:50:46;2.42;;;1.67;;
41653;SDS011;30790;52.030;7.110;2023-02-13T07:53:11;6.18;;;1.80;;
41653;SDS011;30790;52.030;7.110;2023-02-13T07:55:37;5.60;;;2.55;;
41653;SDS011;30790;52.030;7.110;2023-02-13T07:58:03;3.70;;;1.67;;
41653;SDS011;30790;52.030;7.110;2023-02-13T08:00:28;5.03;;;1.88;;
41653;SDS011;30790;52.030;7.110;2023-02-13T08:02:54;3.15;;;1.90;;
41653;SDS011;30790;52.030;7.110;2023-02-13T08:05:19;4.72;;;2.15;;
41653;SDS011;30790;52.030;7.110;2023-02-13T08:07:44;7.57;;;2.10;;
41653;SDS011;30790;52.030;7.110;2023-02-13T08:10:10;4.10;;;2.17;;
41653;SDS011;30790;52.030;7.110;2023-02-13T08:12:55;14.32;;;2.38;;
41653;SDS011;30790;52.030;7.110;2023-02-13T08:15:21;16.48;;;2.88;;
41653;SDS011;30790;52.030;7.110;2023-02-13T08:17:47;9.68;;;3.22;;
41653;SDS011;30790;52.030;7.110;2023-02-13T08:20:13;7.78;;;2.85;;
41653;SDS011;30790;52.030;7.110;2023-02-13T08:22:38;8.38;;;2.90;;
41653;SDS011;30790;52.030;7.110;2023-02-13T08:25:05;14.95;;;3.20;;
41653;SDS011;30790;52.030;7.110;2023-02-13T08:27:31;8.13;;;2.60;;
41653;SDS011;30790;52.030;7.110;2023-02-13T08:29:57;14.75;;;3.28;;
41653;SDS011;30790;52.030;7.110;2023-02-13T08:32:23;10.32;;;2.80;;
41653;SDS011;30790;52.030;7.110;2023-02-13T08:34:49;10.57;;;2.80;;
41653;SDS011;30790;52.030;7.110;2023-02-13T08:37:14;9.57;;;2.50;;
41653;SDS011;30790;52.030;7.110;2023-02-13T08:39:40;5.43;;;2.60;;
41653;SDS011;30790;52.030;7.110;2023-02-13T08:42:05;10.10;;;2.17;;
41653;SDS011;30790;52.030;7.110;2023-02-13T08:44:30;7.13;;;2.38;;
41653;SDS011;30790;52.030;7.110;2023-02-13T08:46:55;12.07;;;3.00;;
41653;SDS011;30790;52.030;7.110;2023-02-13T08:49:21;11.80;;;3.33;;
41653;SDS011;30790;52.030;7.110;2023-02-13T08:51:47;16.48;;;2.75;;
41653;SDS011;30790;52.030;7.110;2023-02-13T08:54:13;13.27;;;2.80;;
41653;SDS011;30790;52.030;7.110;2023-02-13T08:56:38;13.50;;;2.55;;
41653;SDS011;30790;52.030;7.110;2023-02-13T08:59:03;13.63;;;2.65;;
41653;SDS011;30790;52.030;7.110;2023-02-13T09:01:29;10.03;;;2.80;;
41653;SDS011;30790;52.030;7.110;2023-02-13T09:03:54;10.20;;;3.67;;
41653;SDS011;30790;52.030;7.110;2023-02-13T09:06:19;11.53;;;3.10;;
41653;SDS011;30790;52.030;7.110;2023-02-13T09:08:45;6.72;;;2.50;;
41653;SDS011;30790;52.030;7.110;2023-02-13T09:11:11;10.43;;;2.90;;
41653;SDS011;30790;52.030;7.110;2023-02-13T09:13:37;10.45;;;3.45;;
41653;SDS011;30790;52.030;7.110;2023-02-13T09:16:03;13.95;;;3.90;;
41653;SDS011;30790;52.030;7.110;2023-02-13T09:18:31;15.88;;;3.30;;
41653;SDS011;30790;52.030;7.110;2023-02-13T09:20:57;22.17;;;4.28;;
41653;SDS011;30790;52.030;7.110;2023-02-13T09:23:26;13.57;;;3.90;;
41653;SDS011;30790;52.030;7.110;2023-02-13T09:25:54;10.52;;;3.53;;
41653;SDS011;30790;52.030;7.110;2023-02-13T09:28:19;11.10;;;3.78;;
41653;SDS011;30790;52.030;7.110;2023-02-13T09:30:44;7.78;;;3.30;;
41653;SDS011;30790;52.030;7.110;2023-02-13T09:33:10;13.93;;;3.85;;
41653;SDS011;30790;52.030;7.110;2023-02-13T09:35:38;15.15;;;4.00;;
41653;SDS011;30790;52.030;7.110;2023-02-13T09:38:06;10.77;;;4.30;;
41653;SDS011;30790;52.030;7.110;2023-02-13T09:40:34;17.02;;;5.10;;
41653;SDS011;30790;52.030;7.110;2023-02-13T09:43:09;23.58;;;4.75;;
41653;SDS011;30790;52.030;7.110;2023-02-13T09:45:38;17.80;;;4.00;;
41653;SDS011;30790;52.030;7.110;2023-02-13T09:48:04;12.18;;;4.13;;
41653;SDS011;30790;52.030;7.110;2023-02-13T09:50:30;13.98;;;3.70;;
41653;SDS011;30790;52.030;7.110;2023-02-13T09:53:00;12.65;;;4.40;;
41653;SDS011;30790;52.030;7.110;2023-02-13T09:55:28;25.92;;;4.15;;
41653;SDS011;30790;52.030;7.110;2023-02-13T09:58:40;16.75;;;3.75;;
41653;SDS011;30790;52.030;7.110;2023-02-13T10:01:19;16.52;;;4.22;;
41653;SDS011;30790;52.030;7.110;2023-02-13T10:04:16;10.52;;;3.58;;
41653;SDS011;30790;52.030;7.110;2023-02-13T10:07:11;10.07;;;3.20;;
41653;SDS011;30790;52.030;7.110;2023-02-13T10:17:41;10.98;;;3.17;;
41653;SDS011;30790;52.030;7.110;2023-02-13T10:20:31;13.63;;;3.67;;
41653;SDS011;30790;52.030;7.110;2023-02-13T10:23:21;10.00;;;3.22;;
41653;SDS011;30790;52.030;7.110;2023-02-13T10:25:53;16.10;;;4.03;;
41653;SDS011;30790;52.030;7.110;2023-02-13T10:28:38;9.45;;;2.97;;
41653;SDS011;30790;52.030;7.110;2023-02-13T10:36:26;10.38;;;2.90;;
41653;SDS011;30790;52.030;7.110;2023-02-13T10:38:57;9.88;;;3.50;;
41653;SDS011;30790;52.030;7.110;2023-02-13T10:44:25;9.05;;;3.63;;
41653;SDS011;30790;52.030;7.110;2023-02-13T10:47:25;10.70;;;3.10;;
41653;SDS011;30790;52.030;7.110;2023-02-13T10:52:51;12.27;;;3.90;;
41653;SDS011;30790;52.030;7.110;2023-02-13T11:03:28;7.45;;;3.20;;
41653;SDS011;30790;52.030;7.110;2023-02-13T11:05:54;17.55;;;4.32;;
41653;SDS011;30790;52.030;7.110;2023-02-13T11:08:23;8.60;;;3.67;;
41653;SDS011;30790;52.030;7.110;2023-02-13T11:10:49;10.63;;;3.22;;
41653;SDS011;30790;52.030;7.110;2023-02-13T11:13:18;15.50;;;4.07;;
41653;SDS011;30790;52.030;7.110;2023-02-13T11:15:56;11.18;;;4.07;;
41653;SDS011;30790;52.030;7.110;2023-02-13T11:18:39;6.70;;;3.47;;
41653;SDS011;30790;52.030;7.110;2023-02-13T11:21:19;13.15;;;4.72;;
41653;SDS011;30790;52.030;7.110;2023-02-13T11:23:49;7.78;;;3.72;;
41653;SDS011;30790;52.030;7.110;2023-02-13T11:26:35;10.95;;;4.25;;
41653;SDS011;30790;52.030;7.110;2023-02-13T11:29:04;20.08;;;5.13;;
41653;SDS011;30790;52.030;7.110;2023-02-13T11:31:40;10.43;;;4.03;;
41653;SDS011;30790;52.030;7.110;2023-02-13T11:36:47;7.85;;;3.53;;
41653;SDS011;30790;52.030;7.110;2023-02-13T11:39:19;13.27;;;4.22;;
41653;SDS011;30790;52.030;7.110;2023-02-13T11:41:46;9.50;;;3.90;;
41653;SDS011;30790;52.030;7.110;2023-02-13T11:44:26;8.27;;;4.45;;
41653;SDS011;30790;52.030;7.110;2023-02-13T11:46:55;11.13;;;4.13;;
41653;SDS011;30790;52.030;7.110;2023-02-13T11:49:26;14.82;;;4.28;;
41653;SDS011;30790;52.030;7.110;2023-02-13T11:56:52;8.85;;;4.45;;
41653;SDS011;30790;52.030;7.110;2023-02-13T11:59:22;11.32;;;4.07;;
41653;SDS011;30790;52.030;7.110;2023-02-13T12:02:00;8.52;;;4.47;;
41653;SDS011;30790;52.030;7.110;2023-02-13T12:04:44;6.93;;;3.60;;
41653;SDS011;30790;52.030;7.110;2023-02-13T12:07:21;9.73;;;4.38;;
41653;SDS011;30790;52.030;7.110;2023-02-13T12:13:11;8.88;;;4.28;;
41653;SDS011;30790;52.030;7.110;2023-02-13T12:15:41;8.23;;;4.05;;
41653;SDS011;30790;52.030;7.110;2023-02-13T12:21:23;10.90;;;3.97;;
41653;SDS011;30790;52.030;7.110;2023-02-13T12:23:54;10.88;;;3.92;;
41653;SDS011;30790;52.030;7.110;2023-02-13T12:34:51;9.02;;;3.70;;
41653;SDS011;30790;52.030;7.110;2023-02-13T12:37:22;6.95;;;4.05;;
41653;SDS011;30790;52.030;7.110;2023-02-13T12:40:07;6.32;;;3.88;;
41653;SDS011;30790;52.030;7.110;2023-02-13T12:46:03;6.05;;;3.78;;
41653;SDS011;30790;52.030;7.110;2023-02-13T13:00:02;7.30;;;3.58;;
41653;SDS011;30790;52.030;7.110;2023-02-13T13:08:35;7.80;;;3.15;;
41653;SDS011;30790;52.030;7.110;2023-02-13T13:11:12;7.50;;;3.40;;
41653;SDS011;30790;52.030;7.110;2023-02-13T13:14:12;9.45;;;3.10;;
41653;SDS011;30790;52.030;7.110;2023-02-13T13:27:22;7.82;;;3.55;;
41653;SDS011;30790;52.030;7.110;2023-02-13T13:29:58;7.45;;;3.40;;
41653;SDS011;30790;52.030;7.110;2023-02-13T13:32:26;8.00;;;3.38;;
41653;SDS011;30790;52.030;7.110;2023-02-13T13:34:53;7.05;;;3.15;;
41653;SDS011;30790;52.030;7.110;2023-02-13T13:43:36;5.93;;;3.15;;
41653;SDS011;30790;52.030;7.110;2023-02-13T13:46:16;5.35;;;2.83;;
41653;SDS011;30790;52.030;7.110;2023-02-13T13:51:14;4.90;;;2.67;;
41653;SDS011;30790;52.030;7.110;2023-02-13T13:56:25;3.40;;;2.67;;
41653;SDS011;30790;52.030;7.110;2023-02-13T14:07:34;4.07;;;2.88;;
41653;SDS011;30790;52.030;7.110;2023-02-13T14:10:01;6.03;;;2.60;;
41653;SDS011;30790;52.030;7.110;2023-02-13T14:14:52;4.85;;;2.92;;
41653;SDS011;30790;52.030;7.110;2023-02-13T14:23:59;4.68;;;2.83;;
41653;SDS011;30790;52.030;7.110;2023-02-13T14:28:39;5.43;;;3.43;;
41653;SDS011;30790;52.030;7.110;2023-02-13T14:31:17;4.85;;;3.33;;
41653;SDS011;30790;52.030;7.110;2023-02-13T14:36:25;5.75;;;3.58;;
41653;SDS011;30790;52.030;7.110;2023-02-13T14:38:56;4.03;;;3.20;;
41653;SDS011;30790;52.030;7.110;2023-02-13T14:44:23;7.43;;;3.35;;
41653;SDS011;30790;52.030;7.110;2023-02-13T14:46:57;3.63;;;2.92;;
41653;SDS011;30790;52.030;7.110;2023-02-13T14:49:26;4.43;;;2.97;;
41653;SDS011;30790;52.030;7.110;2023-02-13T14:51:58;5.93;;;3.38;;
41653;SDS011;30790;52.030;7.110;2023-02-13T14:54:32;7.25;;;3.33;;
41653;SDS011;30790;52.030;7.110;2023-02-13T14:57:07;6.68;;;2.55;;
41653;SDS011;30790;52.030;7.110;2023-02-13T14:59:37;5.18;;;3.35;;
41653;SDS011;30790;52.030;7.110;2023-02-13T15:02:23;5.07;;;2.97;;
41653;SDS011;30790;52.030;7.110;2023-02-13T15:05:03;6.13;;;3.00;;
41653;SDS011;30790;52.030;7.110;2023-02-13T15:07:36;9.00;;;2.85;;
41653;SDS011;30790;52.030;7.110;2023-02-13T15:10:28;4.97;;;3.40;;
41653;SDS011;30790;52.030;7.110;2023-02-13T15:15:47;7.53;;;3.42;;
41653;SDS011;30790;52.030;7.110;2023-02-13T15:18:18;6.35;;;3.45;;
41653;SDS011;30790;52.030;7.110;2023-02-13T15:20:46;5.13;;;2.83;;
41653;SDS011;30790;52.030;7.110;2023-02-13T15:23:16;6.57;;;3.25;;
41653;SDS011;30790;52.030;7.110;2023-02-13T15:25:47;7.03;;;3.72;;
41653;SDS011;30790;52.030;7.110;2023-02-13T15:28:20;7.20;;;2.80;;
41653;SDS011;30790;52.030;7.110;2023-02-13T15:31:20;8.18;;;3.60;;
41653;SDS011;30790;52.030;7.110;2023-02-13T15:33:47;5.15;;;3.40;;
41653;SDS011;30790;52.030;7.110;2023-02-13T15:36:18;3.40;;;2.85;;
41653;SDS011;30790;52.030;7.110;2023-02-13T15:38:46;5.95;;;3.22;;
41653;SDS011;30790;52.030;7.110;2023-02-13T15:41:15;6.72;;;3.10;;
41653;SDS011;30790;52.030;7.110;2023-02-13T15:43:46;7.95;;;3.60;;
41653;SDS011;30790;52.030;7.110;2023-02-13T15:46:18;5.40;;;2.85;;
41653;SDS011;30790;52.030;7.110;2023-02-13T15:48:45;6.13;;;3.10;;
41653;SDS011;30790;52.030;7.110;2023-02-13T15:51:24;5.38;;;2.83;;
41653;SDS011;30790;52.030;7.110;2023-02-13T15:53:56;3.97;;;2.70;;
41653;SDS011;30790;52.030;7.110;2023-02-13T15:56:23;6.22;;;3.30;;
41653;SDS011;30790;52.030;7.110;2023-02-13T15:58:49;6.13;;;3.17;;
41653;SDS011;30790;52.030;7.110;2023-02-13T16:01:16;9.15;;;3.50;;
41653;SDS011;30790;52.030;7.110;2023-02-13T16:03:42;7.95;;;3.03;;
41653;SDS011;30790;52.030;7.110;2023-02-13T16:06:15;4.82;;;3.20;;
41653;SDS011;30790;52.030;7.110;2023-02-13T16:08:56;5.53;;;3.00;;
41653;SDS011;30790;52.030;7.110;2023-02-13T16:11:24;7.68;;;3.00;;
41653;SDS011;30790;52.030;7.110;2023-02-13T16:14:00;7.40;;;3.67;;
41653;SDS011;30790;52.030;7.110;2023-02-13T16:16:27;10.35;;;3.20;;
41653;SDS011;30790;52.030;7.110;2023-02-13T16:18:55;7.00;;;2.90;;
41653;SDS011;30790;52.030;7.110;2023-02-13T16:21:21;9.20;;;3.10;;
41653;SDS011;30790;52.030;7.110;2023-02-13T16:23:50;10.77;;;3.63;;
41653;SDS011;30790;52.030;7.110;2023-02-13T16:26:20;5.95;;;2.90;;
41653;SDS011;30790;52.030;7.110;2023-02-13T16:28:45;5.20;;;3.03;;
41653;SDS011;30790;52.030;7.110;2023-02-13T16:31:13;8.63;;;3.13;;
41653;SDS011;30790;52.030;7.110;2023-02-13T16:33:40;8.00;;;3.20;;
41653;SDS011;30790;52.030;7.110;2023-02-13T16:41:05;3.65;;;2.42;;
41653;SDS011;30790;52.030;7.110;2023-02-13T16:43:46;6.70;;;3.10;;
41653;SDS011;30790;52.030;7.110;2023-02-13T17:02:17;7.47;;;2.63;;
41653;SDS011;30790;52.030;7.110;2023-02-13T17:04:51;7.00;;;3.08;;
41653;SDS011;30790;52.030;7.110;2023-02-13T17:09:50;9.07;;;3.03;;
41653;SDS011;30790;52.030;7.110;2023-02-13T17:12:17;8.73;;;3.25;;
41653;SDS011;30790;52.030;7.110;2023-02-13T17:14:43;4.88;;;3.13;;
41653;SDS011;30790;52.030;7.110;2023-02-13T17:17:09;7.00;;;2.95;;
41653;SDS011;30790;52.030;7.110;2023-02-13T17:19:36;8.45;;;3.05;;
41653;SDS011;30790;52.030;7.110;2023-02-13T17:22:01;9.40;;;2.90;;
41653;SDS011;30790;52.030;7.110;2023-02-13T17:24:27;9.70;;;3.40;;
41653;SDS011;30790;52.030;7.110;2023-02-13T17:26:52;7.18;;;2.75;;
41653;SDS011;30790;52.030;7.110;2023-02-13T17:29:18;11.20;;;4.30;;
41653;SDS011;30790;52.030;7.110;2023-02-13T17:31:43;8.93;;;3.53;;
41653;SDS011;30790;52.030;7.110;2023-02-13T17:34:09;8.85;;;3.40;;
41653;SDS011;30790;52.030;7.110;2023-02-13T17:36:35;4.80;;;3.05;;
41653;SDS011;30790;52.030;7.110;2023-02-13T17:39:00;11.13;;;3.80;;
41653;SDS011;30790;52.030;7.110;2023-02-13T17:41:26;8.30;;;3.47;;
41653;SDS011;30790;52.030;7.110;2023-02-13T17:43:51;8.02;;;3.22;;
41653;SDS011;30790;52.030;7.110;2023-02-13T17:46:16;6.67;;;3.03;;
41653;SDS011;30790;52.030;7.110;2023-02-13T17:48:41;9.07;;;3.55;;
41653;SDS011;30790;52.030;7.110;2023-02-13T17:51:10;8.10;;;3.30;;
41653;SDS011;30790;52.030;7.110;2023-02-13T17:53:37;7.40;;;2.90;;
41653;SDS011;30790;52.030;7.110;2023-02-13T17:56:03;7.32;;;2.80;;
41653;SDS011;30790;52.030;7.110;2023-02-13T17:58:28;4.05;;;3.17;;
41653;SDS011;30790;52.030;7.110;2023-02-13T18:00:54;10.18;;;3.28;;
41653;SDS011;30790;52.030;7.110;2023-02-13T18:03:19;7.63;;;2.72;;
41653;SDS011;30790;52.030;7.110;2023-02-13T18:05:47;5.57;;;2.80;;
41653;SDS011;30790;52.030;7.110;2023-02-13T18:08:13;4.47;;;2.85;;